sensor_id;sensor_type;location;lat;lon;timestamp;P1;durP1;ratioP1;P2;durP2;ratioP2
19595;SDS011;9945;46.010;8.946;2022-12-16T00:00:28;5.17;;;4.77;;
19595;SDS011;9945;46.010;8.946;2022-12-16T00:02:57;4.90;;;4.50;;
19595;SDS011;9945;46.010;8.946;2022-12-16T00:05:27;4.47;;;4.07;;
19595;SDS011;9945;46.010;8.946;2022-12-16T00:07:53;4.20;;;3.80;;
19595;SDS011;9945;46.010;8.946;2022-12-16T00:10:20;4.27;;;3.90;;
19595;SDS011;9945;46.010;8.946;2022-12-16T00:12:47;4.10;;;3.80;;
19595;SDS011;9945;46.010;8.946;2022-12-16T00:15:14;4.27;;;3.97;;
19595;SDS011;9945;46.010;8.946;2022-12-16T00:17:41;5.30;;;4.83;;
19595;SDS011;9945;46.010;8.946;2022-12-16T00:20:09;7.20;;;6.50;;
19595;SDS011;9945;46.010;8.946;2022-12-16T00:22:38;7.23;;;6.53;;
19595;SDS011;9945;46.010;8.946;2022-12-16T00:25:06;7.03;;;6.43;;
19595;SDS011;9945;46.010;8.946;2022-12-16T00:27:33;7.67;;;6.87;;
19595;SDS011;9945;46.010;8.946;2022-12-16T00:30:00;8.13;;;7.27;;
19595;SDS011;9945;46.010;8.946;2022-12-16T00:32:27;8.70;;;7.40;;
19595;SDS011;9945;46.010;8.946;2022-12-16T00:34:54;7.87;;;6.90;;
19595;SDS011;9945;46.010;8.946;2022-12-16T00:37:21;7.10;;;6.40;;
19595;SDS011;9945;46.010;8.946;2022-12-16T00:39:49;7.43;;;6.73;;
19595;SDS011;9945;46.010;8.946;2022-12-16T00:42:16;6.50;;;5.90;;
19595;SDS011;9945;46.010;8.946;2022-12-16T00:44:43;6.03;;;5.33;;
19595;SDS011;9945;46.010;8.946;2022-12-16T00:47:10;6.20;;;5.70;;
19595;SDS011;9945;46.010;8.946;2022-12-16T00:49:37;5.47;;;4.97;;
19595;SDS011;9945;46.010;8.946;2022-12-16T00:52:03;5.50;;;5.00;;
19595;SDS011;9945;46.010;8.946;2022-12-16T00:54:30;5.63;;;5.10;;
19595;SDS011;9945;46.010;8.946;2022-12-16T00:56:58;5.67;;;5.17;;
19595;SDS011;9945;46.010;8.946;2022-12-16T00:59:25;6.10;;;5.50;;
19595;SDS011;9945;46.010;8.946;2022-12-16T01:01:52;5.50;;;5.00;;
19595;SDS011;9945;46.010;8.946;2022-12-16T01:04:19;6.43;;;5.83;;
19595;SDS011;9945;46.010;8.946;2022-12-16T01:06:46;7.03;;;6.33;;
19595;SDS011;9945;46.010;8.946;2022-12-16T01:09:13;6.43;;;5.80;;
19595;SDS011;9945;46.010;8.946;2022-12-16T01:11:39;6.73;;;6.07;;
19595;SDS011;9945;46.010;8.946;2022-12-16T01:14:08;7.20;;;6.50;;
19595;SDS011;9945;46.010;8.946;2022-12-16T01:16:34;7.17;;;6.47;;
19595;SDS011;9945;46.010;8.946;2022-12-16T01:19:01;8.30;;;7.50;;
19595;SDS011;9945;46.010;8.946;2022-12-16T01:21:28;10.30;;;8.07;;
19595;SDS011;9945;46.010;8.946;2022-12-16T01:23:55;10.43;;;9.43;;
19595;SDS011;9945;46.010;8.946;2022-12-16T01:26:22;9.00;;;8.20;;
19595;SDS011;9945;46.010;8.946;2022-12-16T01:28:51;10.53;;;9.20;;
19595;SDS011;9945;46.010;8.946;2022-12-16T01:31:19;10.73;;;9.60;;
19595;SDS011;9945;46.010;8.946;2022-12-16T01:33:47;11.30;;;10.20;;
19595;SDS011;9945;46.010;8.946;2022-12-16T01:36:14;11.27;;;10.17;;
19595;SDS011;9945;46.010;8.946;2022-12-16T01:38:42;12.57;;;10.40;;
19595;SDS011;9945;46.010;8.946;2022-12-16T01:41:10;12.20;;;10.70;;
19595;SDS011;9945;46.010;8.946;2022-12-16T01:43:38;12.00;;;10.67;;
19595;SDS011;9945;46.010;8.946;2022-12-16T01:46:07;13.43;;;11.17;;
19595;SDS011;9945;46.010;8.946;2022-12-16T01:48:44;13.27;;;11.87;;
19595;SDS011;9945;46.010;8.946;2022-12-16T01:51:15;15.90;;;12.33;;
19595;SDS011;9945;46.010;8.946;2022-12-16T01:53:47;15.73;;;11.40;;
19595;SDS011;9945;46.010;8.946;2022-12-16T01:56:17;14.20;;;11.93;;
19595;SDS011;9945;46.010;8.946;2022-12-16T01:58:47;15.10;;;12.47;;
19595;SDS011;9945;46.010;8.946;2022-12-16T02:01:15;14.37;;;11.43;;
19595;SDS011;9945;46.010;8.946;2022-12-16T02:03:43;14.33;;;11.53;;
19595;SDS011;9945;46.010;8.946;2022-12-16T02:06:10;12.37;;;10.97;;
19595;SDS011;9945;46.010;8.946;2022-12-16T02:08:37;11.70;;;10.50;;
19595;SDS011;9945;46.010;8.946;2022-12-16T02:11:12;15.87;;;10.47;;
19595;SDS011;9945;46.010;8.946;2022-12-16T02:13:51;10.40;;;9.40;;
19595;SDS011;9945;46.010;8.946;2022-12-16T02:16:31;10.00;;;9.03;;
19595;SDS011;9945;46.010;8.946;2022-12-16T02:19:08;10.40;;;9.37;;
19595;SDS011;9945;46.010;8.946;2022-12-16T02:21:56;9.40;;;8.50;;
19595;SDS011;9945;46.010;8.946;2022-12-16T02:24:40;9.93;;;8.93;;
19595;SDS011;9945;46.010;8.946;2022-12-16T02:33:06;8.60;;;7.80;;
19595;SDS011;9945;46.010;8.946;2022-12-16T02:35:43;7.30;;;6.70;;
19595;SDS011;9945;46.010;8.946;2022-12-16T02:38:18;8.80;;;7.90;;
19595;SDS011;9945;46.010;8.946;2022-12-16T02:40:51;7.90;;;7.20;;
19595;SDS011;9945;46.010;8.946;2022-12-16T02:43:26;7.73;;;7.03;;
19595;SDS011;9945;46.010;8.946;2022-12-16T02:46:06;7.57;;;6.90;;
19595;SDS011;9945;46.010;8.946;2022-12-16T02:48:33;7.60;;;7.00;;
19595;SDS011;9945;46.010;8.946;2022-12-16T02:51:01;7.80;;;7.10;;
19595;SDS011;9945;46.010;8.946;2022-12-16T02:53:28;7.80;;;7.17;;
19595;SDS011;9945;46.010;8.946;2022-12-16T02:55:59;6.53;;;6.03;;
19595;SDS011;9945;46.010;8.946;2022-12-16T02:58:34;6.47;;;5.87;;
19595;SDS011;9945;46.010;8.946;2022-12-16T03:01:08;5.77;;;5.37;;
19595;SDS011;9945;46.010;8.946;2022-12-16T03:03:43;6.20;;;5.70;;
19595;SDS011;9945;46.010;8.946;2022-12-16T03:06:15;6.50;;;6.00;;
19595;SDS011;9945;46.010;8.946;2022-12-16T03:08:46;5.93;;;5.53;;
19595;SDS011;9945;46.010;8.946;2022-12-16T03:11:17;5.87;;;5.37;;
19595;SDS011;9945;46.010;8.946;2022-12-16T03:13:45;6.23;;;5.73;;
19595;SDS011;9945;46.010;8.946;2022-12-16T03:16:17;6.47;;;5.97;;
19595;SDS011;9945;46.010;8.946;2022-12-16T03:18:48;6.30;;;5.80;;
19595;SDS011;9945;46.010;8.946;2022-12-16T03:21:18;6.00;;;5.50;;
19595;SDS011;9945;46.010;8.946;2022-12-16T03:23:48;6.03;;;5.53;;
19595;SDS011;9945;46.010;8.946;2022-12-16T03:26:20;5.40;;;5.00;;
19595;SDS011;9945;46.010;8.946;2022-12-16T03:28:53;5.97;;;5.47;;
19595;SDS011;9945;46.010;8.946;2022-12-16T03:31:29;6.00;;;5.50;;
19595;SDS011;9945;46.010;8.946;2022-12-16T03:34:03;5.87;;;5.27;;
19595;SDS011;9945;46.010;8.946;2022-12-16T03:36:35;5.60;;;5.20;;
19595;SDS011;9945;46.010;8.946;2022-12-16T03:39:04;5.27;;;4.87;;
19595;SDS011;9945;46.010;8.946;2022-12-16T03:41:33;5.23;;;4.83;;
19595;SDS011;9945;46.010;8.946;2022-12-16T03:44:02;5.60;;;5.20;;
19595;SDS011;9945;46.010;8.946;2022-12-16T03:46:31;5.43;;;4.93;;
19595;SDS011;9945;46.010;8.946;2022-12-16T03:48:58;4.77;;;4.37;;
19595;SDS011;9945;46.010;8.946;2022-12-16T03:51:25;5.87;;;5.37;;
19595;SDS011;9945;46.010;8.946;2022-12-16T03:53:52;5.70;;;5.17;;
19595;SDS011;9945;46.010;8.946;2022-12-16T03:56:19;5.37;;;4.83;;
19595;SDS011;9945;46.010;8.946;2022-12-16T03:58:46;6.73;;;4.33;;
19595;SDS011;9945;46.010;8.946;2022-12-16T04:01:12;4.90;;;4.47;;
19595;SDS011;9945;46.010;8.946;2022-12-16T04:03:41;4.90;;;4.33;;
19595;SDS011;9945;46.010;8.946;2022-12-16T04:06:08;5.03;;;4.63;;
19595;SDS011;9945;46.010;8.946;2022-12-16T04:08:35;4.90;;;4.50;;
19595;SDS011;9945;46.010;8.946;2022-12-16T04:11:02;5.10;;;4.70;;
19595;SDS011;9945;46.010;8.946;2022-12-16T04:13:46;4.20;;;3.90;;
19595;SDS011;9945;46.010;8.946;2022-12-16T04:16:30;4.17;;;3.87;;
19595;SDS011;9945;46.010;8.946;2022-12-16T04:19:18;4.43;;;4.13;;
19595;SDS011;9945;46.010;8.946;2022-12-16T04:22:08;4.20;;;3.90;;
19595;SDS011;9945;46.010;8.946;2022-12-16T04:24:56;4.30;;;4.00;;
19595;SDS011;9945;46.010;8.946;2022-12-16T04:27:27;4.40;;;4.10;;
19595;SDS011;9945;46.010;8.946;2022-12-16T04:29:54;4.10;;;3.80;;
19595;SDS011;9945;46.010;8.946;2022-12-16T04:32:39;4.07;;;3.67;;
19595;SDS011;9945;46.010;8.946;2022-12-16T04:35:24;4.33;;;4.03;;
19595;SDS011;9945;46.010;8.946;2022-12-16T04:38:09;4.40;;;4.10;;
19595;SDS011;9945;46.010;8.946;2022-12-16T04:40:53;3.87;;;3.60;;
19595;SDS011;9945;46.010;8.946;2022-12-16T04:43:38;4.37;;;4.07;;
19595;SDS011;9945;46.010;8.946;2022-12-16T04:46:22;4.07;;;3.77;;
19595;SDS011;9945;46.010;8.946;2022-12-16T04:49:07;4.27;;;3.90;;
19595;SDS011;9945;46.010;8.946;2022-12-16T04:51:52;4.10;;;3.80;;
19595;SDS011;9945;46.010;8.946;2022-12-16T04:54:36;4.47;;;3.20;;
19595;SDS011;9945;46.010;8.946;2022-12-16T04:57:21;4.10;;;3.80;;
19595;SDS011;9945;46.010;8.946;2022-12-16T05:00:07;3.97;;;3.67;;
19595;SDS011;9945;46.010;8.946;2022-12-16T05:02:52;3.60;;;3.40;;
19595;SDS011;9945;46.010;8.946;2022-12-16T05:05:36;3.20;;;3.00;;
19595;SDS011;9945;46.010;8.946;2022-12-16T05:08:22;3.43;;;3.13;;
19595;SDS011;9945;46.010;8.946;2022-12-16T05:11:06;3.30;;;3.10;;
19595;SDS011;9945;46.010;8.946;2022-12-16T05:13:50;3.53;;;3.33;;
19595;SDS011;9945;46.010;8.946;2022-12-16T05:16:35;3.47;;;3.23;;
19595;SDS011;9945;46.010;8.946;2022-12-16T05:19:20;2.37;;;2.27;;
19595;SDS011;9945;46.010;8.946;2022-12-16T05:22:04;3.30;;;3.10;;
19595;SDS011;9945;46.010;8.946;2022-12-16T05:24:50;3.80;;;3.60;;
19595;SDS011;9945;46.010;8.946;2022-12-16T05:27:35;3.30;;;3.10;;
19595;SDS011;9945;46.010;8.946;2022-12-16T05:30:19;3.57;;;3.27;;
19595;SDS011;9945;46.010;8.946;2022-12-16T05:33:04;3.70;;;3.40;;
19595;SDS011;9945;46.010;8.946;2022-12-16T05:35:48;3.80;;;3.50;;
19595;SDS011;9945;46.010;8.946;2022-12-16T05:38:33;3.90;;;3.60;;
19595;SDS011;9945;46.010;8.946;2022-12-16T05:41:19;3.87;;;3.57;;
19595;SDS011;9945;46.010;8.946;2022-12-16T05:44:03;3.80;;;3.50;;
19595;SDS011;9945;46.010;8.946;2022-12-16T05:46:48;3.87;;;3.57;;
19595;SDS011;9945;46.010;8.946;2022-12-16T05:49:32;4.23;;;3.83;;
19595;SDS011;9945;46.010;8.946;2022-12-16T05:52:16;4.17;;;3.70;;
19595;SDS011;9945;46.010;8.946;2022-12-16T05:55:01;3.57;;;3.37;;
19595;SDS011;9945;46.010;8.946;2022-12-16T05:57:48;3.90;;;3.53;;
19595;SDS011;9945;46.010;8.946;2022-12-16T06:00:33;4.27;;;3.90;;
19595;SDS011;9945;46.010;8.946;2022-12-16T06:03:18;4.33;;;3.70;;
19595;SDS011;9945;46.010;8.946;2022-12-16T06:06:02;4.30;;;4.00;;
19595;SDS011;9945;46.010;8.946;2022-12-16T06:08:47;4.03;;;3.63;;
19595;SDS011;9945;46.010;8.946;2022-12-16T06:11:31;4.30;;;3.90;;
19595;SDS011;9945;46.010;8.946;2022-12-16T06:14:17;4.33;;;4.00;;
19595;SDS011;9945;46.010;8.946;2022-12-16T06:17:01;4.80;;;3.90;;
19595;SDS011;9945;46.010;8.946;2022-12-16T06:19:46;4.13;;;3.73;;
19595;SDS011;9945;46.010;8.946;2022-12-16T06:22:30;5.07;;;4.30;;
19595;SDS011;9945;46.010;8.946;2022-12-16T06:25:15;4.70;;;4.30;;
19595;SDS011;9945;46.010;8.946;2022-12-16T06:27:59;5.00;;;4.53;;
19595;SDS011;9945;46.010;8.946;2022-12-16T06:30:45;4.60;;;4.20;;
19595;SDS011;9945;46.010;8.946;2022-12-16T06:33:29;5.07;;;4.30;;
19595;SDS011;9945;46.010;8.946;2022-12-16T06:36:13;4.80;;;4.40;;
19595;SDS011;9945;46.010;8.946;2022-12-16T06:38:58;4.73;;;4.33;;
19595;SDS011;9945;46.010;8.946;2022-12-16T06:41:42;5.13;;;4.70;;
19595;SDS011;9945;46.010;8.946;2022-12-16T06:44:27;5.03;;;4.53;;
19595;SDS011;9945;46.010;8.946;2022-12-16T06:47:13;4.43;;;4.03;;
19595;SDS011;9945;46.010;8.946;2022-12-16T06:49:57;4.57;;;4.20;;
19595;SDS011;9945;46.010;8.946;2022-12-16T06:52:41;5.10;;;4.60;;
19595;SDS011;9945;46.010;8.946;2022-12-16T06:55:26;4.53;;;4.13;;
19595;SDS011;9945;46.010;8.946;2022-12-16T06:58:10;5.83;;;3.90;;
19595;SDS011;9945;46.010;8.946;2022-12-16T07:00:54;4.43;;;4.00;;
19595;SDS011;9945;46.010;8.946;2022-12-16T07:03:40;4.70;;;4.30;;
19595;SDS011;9945;46.010;8.946;2022-12-16T07:06:25;4.20;;;3.90;;
19595;SDS011;9945;46.010;8.946;2022-12-16T07:09:09;4.23;;;3.93;;
19595;SDS011;9945;46.010;8.946;2022-12-16T07:11:54;4.30;;;4.00;;
19595;SDS011;9945;46.010;8.946;2022-12-16T07:14:38;4.07;;;3.63;;
19595;SDS011;9945;46.010;8.946;2022-12-16T07:17:28;4.17;;;3.77;;
19595;SDS011;9945;46.010;8.946;2022-12-16T07:20:13;5.93;;;3.90;;
19595;SDS011;9945;46.010;8.946;2022-12-16T07:22:57;5.80;;;4.67;;
19595;SDS011;9945;46.010;8.946;2022-12-16T07:25:42;6.40;;;4.40;;
19595;SDS011;9945;46.010;8.946;2022-12-16T07:28:26;5.90;;;4.37;;
19595;SDS011;9945;46.010;8.946;2022-12-16T07:31:11;8.63;;;4.73;;
19595;SDS011;9945;46.010;8.946;2022-12-16T07:33:55;5.03;;;4.53;;
19595;SDS011;9945;46.010;8.946;2022-12-16T07:36:41;4.50;;;4.10;;
19595;SDS011;9945;46.010;8.946;2022-12-16T07:39:25;4.40;;;4.10;;
19595;SDS011;9945;46.010;8.946;2022-12-16T07:42:09;4.43;;;4.03;;
19595;SDS011;9945;46.010;8.946;2022-12-16T07:44:54;3.93;;;3.63;;
19595;SDS011;9945;46.010;8.946;2022-12-16T07:47:44;4.63;;;4.03;;
19595;SDS011;9945;46.010;8.946;2022-12-16T07:50:29;4.30;;;4.00;;
19595;SDS011;9945;46.010;8.946;2022-12-16T07:53:15;4.57;;;4.23;;
19595;SDS011;9945;46.010;8.946;2022-12-16T07:55:59;4.80;;;4.40;;
19595;SDS011;9945;46.010;8.946;2022-12-16T07:58:43;4.43;;;4.03;;
19595;SDS011;9945;46.010;8.946;2022-12-16T08:01:28;4.13;;;3.83;;
19595;SDS011;9945;46.010;8.946;2022-12-16T08:04:12;4.73;;;4.23;;
19595;SDS011;9945;46.010;8.946;2022-12-16T08:07:11;4.67;;;4.27;;
19595;SDS011;9945;46.010;8.946;2022-12-16T08:09:57;4.40;;;4.00;;
19595;SDS011;9945;46.010;8.946;2022-12-16T08:12:41;4.93;;;4.50;;
19595;SDS011;9945;46.010;8.946;2022-12-16T08:15:25;5.07;;;4.57;;
19595;SDS011;9945;46.010;8.946;2022-12-16T08:18:09;4.73;;;4.23;;
19595;SDS011;9945;46.010;8.946;2022-12-16T08:20:54;5.93;;;4.20;;
19595;SDS011;9945;46.010;8.946;2022-12-16T08:23:38;6.77;;;5.03;;
19595;SDS011;9945;46.010;8.946;2022-12-16T08:26:24;5.77;;;5.17;;
19595;SDS011;9945;46.010;8.946;2022-12-16T08:29:14;10.50;;;6.63;;
19595;SDS011;9945;46.010;8.946;2022-12-16T08:31:58;9.23;;;6.07;;
19595;SDS011;9945;46.010;8.946;2022-12-16T08:34:42;7.03;;;5.37;;
19595;SDS011;9945;46.010;8.946;2022-12-16T08:37:27;6.17;;;5.57;;
19595;SDS011;9945;46.010;8.946;2022-12-16T08:40:11;8.37;;;5.83;;
19595;SDS011;9945;46.010;8.946;2022-12-16T08:42:57;5.27;;;4.77;;
19595;SDS011;9945;46.010;8.946;2022-12-16T08:45:43;8.00;;;6.00;;
19595;SDS011;9945;46.010;8.946;2022-12-16T08:48:28;6.70;;;6.10;;
19595;SDS011;9945;46.010;8.946;2022-12-16T08:51:12;6.57;;;5.93;;
19595;SDS011;9945;46.010;8.946;2022-12-16T08:53:57;7.30;;;6.17;;
19595;SDS011;9945;46.010;8.946;2022-12-16T08:56:41;7.27;;;6.27;;
19595;SDS011;9945;46.010;8.946;2022-12-16T08:59:27;6.80;;;6.20;;
19595;SDS011;9945;46.010;8.946;2022-12-16T09:02:11;6.70;;;5.63;;
19595;SDS011;9945;46.010;8.946;2022-12-16T09:04:56;6.43;;;5.80;;
19595;SDS011;9945;46.010;8.946;2022-12-16T09:07:40;8.60;;;5.67;;
19595;SDS011;9945;46.010;8.946;2022-12-16T09:10:25;6.80;;;5.47;;
19595;SDS011;9945;46.010;8.946;2022-12-16T09:13:10;9.33;;;5.17;;
19595;SDS011;9945;46.010;8.946;2022-12-16T09:15:57;5.33;;;4.87;;
19595;SDS011;9945;46.010;8.946;2022-12-16T09:18:42;6.37;;;5.00;;
19595;SDS011;9945;46.010;8.946;2022-12-16T09:21:27;6.47;;;5.30;;
19595;SDS011;9945;46.010;8.946;2022-12-16T09:24:11;9.20;;;5.27;;
19595;SDS011;9945;46.010;8.946;2022-12-16T09:26:56;9.77;;;6.30;;
19595;SDS011;9945;46.010;8.946;2022-12-16T09:29:40;9.87;;;6.10;;
19595;SDS011;9945;46.010;8.946;2022-12-16T09:32:26;6.77;;;6.00;;
19595;SDS011;9945;46.010;8.946;2022-12-16T09:35:11;8.23;;;6.33;;
19595;SDS011;9945;46.010;8.946;2022-12-16T09:37:55;7.83;;;6.77;;
19595;SDS011;9945;46.010;8.946;2022-12-16T09:40:40;11.60;;;8.73;;
19595;SDS011;9945;46.010;8.946;2022-12-16T09:43:32;10.23;;;7.77;;
19595;SDS011;9945;46.010;8.946;2022-12-16T09:46:29;12.90;;;8.43;;
19595;SDS011;9945;46.010;8.946;2022-12-16T09:49:24;18.83;;;11.73;;
19595;SDS011;9945;46.010;8.946;2022-12-16T09:52:18;21.87;;;12.50;;
19595;SDS011;9945;46.010;8.946;2022-12-16T09:55:13;27.27;;;16.63;;
19595;SDS011;9945;46.010;8.946;2022-12-16T09:58:04;23.87;;;16.77;;
19595;SDS011;9945;46.010;8.946;2022-12-16T10:00:49;22.20;;;15.93;;
19595;SDS011;9945;46.010;8.946;2022-12-16T10:03:35;23.63;;;14.90;;
19595;SDS011;9945;46.010;8.946;2022-12-16T10:06:26;16.70;;;13.37;;
19595;SDS011;9945;46.010;8.946;2022-12-16T10:09:21;15.30;;;11.50;;
19595;SDS011;9945;46.010;8.946;2022-12-16T10:12:11;14.60;;;9.90;;
19595;SDS011;9945;46.010;8.946;2022-12-16T10:15:08;8.93;;;8.07;;
19595;SDS011;9945;46.010;8.946;2022-12-16T10:18:01;7.10;;;6.40;;
19595;SDS011;9945;46.010;8.946;2022-12-16T10:20:55;6.57;;;5.97;;
19595;SDS011;9945;46.010;8.946;2022-12-16T10:23:42;6.53;;;5.57;;
19595;SDS011;9945;46.010;8.946;2022-12-16T10:26:36;5.17;;;4.67;;
19595;SDS011;9945;46.010;8.946;2022-12-16T10:29:28;4.87;;;4.47;;
19595;SDS011;9945;46.010;8.946;2022-12-16T10:32:17;6.00;;;4.60;;
19595;SDS011;9945;46.010;8.946;2022-12-16T10:35:18;4.63;;;4.23;;
19595;SDS011;9945;46.010;8.946;2022-12-16T10:38:04;5.13;;;4.63;;
19595;SDS011;9945;46.010;8.946;2022-12-16T10:40:56;6.43;;;4.40;;
19595;SDS011;9945;46.010;8.946;2022-12-16T10:43:42;5.33;;;4.83;;
19595;SDS011;9945;46.010;8.946;2022-12-16T10:46:31;5.40;;;4.90;;
19595;SDS011;9945;46.010;8.946;2022-12-16T10:49:14;7.63;;;5.80;;
19595;SDS011;9945;46.010;8.946;2022-12-16T10:51:59;10.10;;;6.37;;
19595;SDS011;9945;46.010;8.946;2022-12-16T10:54:45;6.77;;;6.20;;
19595;SDS011;9945;46.010;8.946;2022-12-16T10:57:40;5.63;;;5.13;;
19595;SDS011;9945;46.010;8.946;2022-12-16T11:00:38;6.07;;;5.27;;
19595;SDS011;9945;46.010;8.946;2022-12-16T11:03:24;7.00;;;4.93;;
19595;SDS011;9945;46.010;8.946;2022-12-16T11:06:11;5.63;;;5.10;;
19595;SDS011;9945;46.010;8.946;2022-12-16T11:09:11;5.37;;;4.87;;
19595;SDS011;9945;46.010;8.946;2022-12-16T11:12:12;5.00;;;4.47;;
19595;SDS011;9945;46.010;8.946;2022-12-16T11:14:58;5.27;;;4.60;;
19595;SDS011;9945;46.010;8.946;2022-12-16T11:17:45;4.60;;;4.20;;
19595;SDS011;9945;46.010;8.946;2022-12-16T11:20:45;4.30;;;3.97;;
19595;SDS011;9945;46.010;8.946;2022-12-16T11:23:46;4.40;;;4.00;;
19595;SDS011;9945;46.010;8.946;2022-12-16T11:26:31;4.83;;;4.40;;
19595;SDS011;9945;46.010;8.946;2022-12-16T11:29:16;3.93;;;3.63;;
19595;SDS011;9945;46.010;8.946;2022-12-16T11:32:03;4.60;;;4.20;;
19595;SDS011;9945;46.010;8.946;2022-12-16T11:34:59;5.53;;;4.30;;
19595;SDS011;9945;46.010;8.946;2022-12-16T11:37:48;4.67;;;4.27;;
19595;SDS011;9945;46.010;8.946;2022-12-16T11:40:34;4.30;;;4.00;;
19595;SDS011;9945;46.010;8.946;2022-12-16T11:43:20;7.00;;;4.60;;
19595;SDS011;9945;46.010;8.946;2022-12-16T11:46:17;9.33;;;5.37;;
19595;SDS011;9945;46.010;8.946;2022-12-16T11:49:10;20.73;;;9.63;;
19595;SDS011;9945;46.010;8.946;2022-12-16T11:52:00;63.30;;;24.57;;
19595;SDS011;9945;46.010;8.946;2022-12-16T11:54:49;29.80;;;19.00;;
19595;SDS011;9945;46.010;8.946;2022-12-16T11:57:42;10.07;;;7.97;;
19595;SDS011;9945;46.010;8.946;2022-12-16T12:00:31;5.50;;;5.00;;
19595;SDS011;9945;46.010;8.946;2022-12-16T12:03:19;5.03;;;4.53;;
19595;SDS011;9945;46.010;8.946;2022-12-16T12:06:10;4.83;;;4.40;;
19595;SDS011;9945;46.010;8.946;2022-12-16T12:09:03;4.47;;;4.17;;
19595;SDS011;9945;46.010;8.946;2022-12-16T12:11:53;4.97;;;4.47;;
19595;SDS011;9945;46.010;8.946;2022-12-16T12:14:47;5.30;;;4.90;;
19595;SDS011;9945;46.010;8.946;2022-12-16T12:17:36;4.80;;;4.50;;
19595;SDS011;9945;46.010;8.946;2022-12-16T12:20:35;5.17;;;4.83;;
19595;SDS011;9945;46.010;8.946;2022-12-16T12:23:34;5.10;;;4.63;;
19595;SDS011;9945;46.010;8.946;2022-12-16T12:26:24;5.20;;;4.60;;
19595;SDS011;9945;46.010;8.946;2022-12-16T12:29:14;4.87;;;4.57;;
19595;SDS011;9945;46.010;8.946;2022-12-16T12:32:05;4.87;;;4.47;;
19595;SDS011;9945;46.010;8.946;2022-12-16T12:34:59;4.87;;;4.40;;
19595;SDS011;9945;46.010;8.946;2022-12-16T12:37:52;5.17;;;4.73;;
19595;SDS011;9945;46.010;8.946;2022-12-16T12:40:45;5.03;;;4.50;;
19595;SDS011;9945;46.010;8.946;2022-12-16T12:43:38;4.53;;;3.93;;
19595;SDS011;9945;46.010;8.946;2022-12-16T12:46:32;4.73;;;4.33;;
19595;SDS011;9945;46.010;8.946;2022-12-16T12:49:25;4.93;;;4.63;;
19595;SDS011;9945;46.010;8.946;2022-12-16T12:52:19;5.40;;;5.10;;
19595;SDS011;9945;46.010;8.946;2022-12-16T12:55:16;4.90;;;4.60;;
19595;SDS011;9945;46.010;8.946;2022-12-16T12:58:07;5.37;;;5.03;;
19595;SDS011;9945;46.010;8.946;2022-12-16T13:00:53;4.90;;;4.60;;
19595;SDS011;9945;46.010;8.946;2022-12-16T13:03:41;5.20;;;4.80;;
19595;SDS011;9945;46.010;8.946;2022-12-16T13:06:32;4.83;;;4.53;;
19595;SDS011;9945;46.010;8.946;2022-12-16T13:09:22;5.37;;;4.87;;
19595;SDS011;9945;46.010;8.946;2022-12-16T13:12:23;5.90;;;5.40;;
19595;SDS011;9945;46.010;8.946;2022-12-16T13:15:18;5.37;;;4.87;;
19595;SDS011;9945;46.010;8.946;2022-12-16T13:18:25;4.77;;;4.47;;
19595;SDS011;9945;46.010;8.946;2022-12-16T13:24:31;6.40;;;5.90;;
19595;SDS011;9945;46.010;8.946;2022-12-16T13:27:20;6.07;;;5.67;;
19595;SDS011;9945;46.010;8.946;2022-12-16T13:30:20;5.90;;;5.50;;
19595;SDS011;9945;46.010;8.946;2022-12-16T13:33:19;6.57;;;5.97;;
19595;SDS011;9945;46.010;8.946;2022-12-16T13:36:06;5.67;;;5.27;;
19595;SDS011;9945;46.010;8.946;2022-12-16T13:38:53;6.50;;;5.93;;
19595;SDS011;9945;46.010;8.946;2022-12-16T13:41:49;6.37;;;5.77;;
19595;SDS011;9945;46.010;8.946;2022-12-16T13:44:54;5.90;;;5.50;;
19595;SDS011;9945;46.010;8.946;2022-12-16T13:47:59;6.13;;;5.63;;
19595;SDS011;9945;46.010;8.946;2022-12-16T13:50:48;6.40;;;5.90;;
19595;SDS011;9945;46.010;8.946;2022-12-16T13:53:36;6.37;;;5.87;;
19595;SDS011;9945;46.010;8.946;2022-12-16T13:56:25;14.30;;;9.23;;
19595;SDS011;9945;46.010;8.946;2022-12-16T13:59:16;6.63;;;6.03;;
19595;SDS011;9945;46.010;8.946;2022-12-16T14:02:12;6.63;;;5.93;;
19595;SDS011;9945;46.010;8.946;2022-12-16T14:05:03;6.47;;;5.87;;
19595;SDS011;9945;46.010;8.946;2022-12-16T14:07:59;6.70;;;6.20;;
19595;SDS011;9945;46.010;8.946;2022-12-16T14:10:43;7.80;;;6.07;;
19595;SDS011;9945;46.010;8.946;2022-12-16T14:13:29;39.50;;;25.47;;
19595;SDS011;9945;46.010;8.946;2022-12-16T14:16:27;10.40;;;9.30;;
19595;SDS011;9945;46.010;8.946;2022-12-16T14:19:20;6.97;;;6.27;;
19595;SDS011;9945;46.010;8.946;2022-12-16T14:22:18;6.73;;;6.13;;
19595;SDS011;9945;46.010;8.946;2022-12-16T14:25:12;6.03;;;5.53;;
19595;SDS011;9945;46.010;8.946;2022-12-16T14:27:58;7.93;;;6.27;;
19595;SDS011;9945;46.010;8.946;2022-12-16T14:30:42;6.90;;;6.30;;
19595;SDS011;9945;46.010;8.946;2022-12-16T14:33:27;6.50;;;5.93;;
19595;SDS011;9945;46.010;8.946;2022-12-16T14:36:17;6.60;;;6.00;;
19595;SDS011;9945;46.010;8.946;2022-12-16T14:39:07;6.20;;;5.73;;
19595;SDS011;9945;46.010;8.946;2022-12-16T14:41:53;6.13;;;5.63;;
19595;SDS011;9945;46.010;8.946;2022-12-16T14:44:38;5.93;;;5.43;;
19595;SDS011;9945;46.010;8.946;2022-12-16T14:47:23;5.67;;;5.17;;
19595;SDS011;9945;46.010;8.946;2022-12-16T14:50:15;5.70;;;5.30;;
19595;SDS011;9945;46.010;8.946;2022-12-16T14:53:13;5.60;;;5.20;;
19595;SDS011;9945;46.010;8.946;2022-12-16T14:56:16;5.90;;;5.40;;
19595;SDS011;9945;46.010;8.946;2022-12-16T14:59:06;5.57;;;5.17;;
19595;SDS011;9945;46.010;8.946;2022-12-16T15:01:51;5.80;;;5.40;;
19595;SDS011;9945;46.010;8.946;2022-12-16T15:04:36;6.17;;;5.67;;
19595;SDS011;9945;46.010;8.946;2022-12-16T15:07:20;6.27;;;5.67;;
19595;SDS011;9945;46.010;8.946;2022-12-16T15:10:05;5.93;;;5.47;;
19595;SDS011;9945;46.010;8.946;2022-12-16T15:12:52;5.90;;;5.40;;
19595;SDS011;9945;46.010;8.946;2022-12-16T15:15:37;5.63;;;5.13;;
19595;SDS011;9945;46.010;8.946;2022-12-16T15:18:25;6.17;;;5.57;;
19595;SDS011;9945;46.010;8.946;2022-12-16T15:21:12;7.27;;;6.57;;
19595;SDS011;9945;46.010;8.946;2022-12-16T15:23:57;7.00;;;6.40;;
19595;SDS011;9945;46.010;8.946;2022-12-16T15:26:41;8.07;;;7.27;;
19595;SDS011;9945;46.010;8.946;2022-12-16T15:29:28;8.37;;;7.57;;
19595;SDS011;9945;46.010;8.946;2022-12-16T15:32:26;8.00;;;7.33;;
19595;SDS011;9945;46.010;8.946;2022-12-16T15:35:22;7.80;;;7.10;;
19595;SDS011;9945;46.010;8.946;2022-12-16T15:38:09;10.80;;;6.87;;
19595;SDS011;9945;46.010;8.946;2022-12-16T15:40:54;7.33;;;6.30;;
19595;SDS011;9945;46.010;8.946;2022-12-16T15:43:38;7.13;;;6.47;;
19595;SDS011;9945;46.010;8.946;2022-12-16T15:46:24;10.73;;;6.70;;
19595;SDS011;9945;46.010;8.946;2022-12-16T15:49:15;7.00;;;6.30;;
19595;SDS011;9945;46.010;8.946;2022-12-16T15:52:02;7.00;;;5.93;;
19595;SDS011;9945;46.010;8.946;2022-12-16T15:58:20;6.50;;;6.00;;
19595;SDS011;9945;46.010;8.946;2022-12-16T16:01:07;8.77;;;6.80;;
19595;SDS011;9945;46.010;8.946;2022-12-16T16:03:54;7.73;;;7.03;;
19595;SDS011;9945;46.010;8.946;2022-12-16T16:06:36;7.77;;;6.37;;
19595;SDS011;9945;46.010;8.946;2022-12-16T16:09:21;7.67;;;6.83;;
19595;SDS011;9945;46.010;8.946;2022-12-16T16:12:07;7.53;;;6.77;;
19595;SDS011;9945;46.010;8.946;2022-12-16T16:14:52;8.13;;;7.30;;
19595;SDS011;9945;46.010;8.946;2022-12-16T16:17:36;7.70;;;6.97;;
19595;SDS011;9945;46.010;8.946;2022-12-16T16:20:22;8.07;;;6.33;;
19595;SDS011;9945;46.010;8.946;2022-12-16T16:23:07;6.87;;;6.07;;
19595;SDS011;9945;46.010;8.946;2022-12-16T16:25:52;10.07;;;7.17;;
19595;SDS011;9945;46.010;8.946;2022-12-16T16:28:36;7.43;;;6.83;;
19595;SDS011;9945;46.010;8.946;2022-12-16T16:31:20;8.10;;;7.23;;
19595;SDS011;9945;46.010;8.946;2022-12-16T16:34:05;8.10;;;7.30;;
19595;SDS011;9945;46.010;8.946;2022-12-16T16:36:52;9.87;;;7.70;;
19595;SDS011;9945;46.010;8.946;2022-12-16T16:39:37;12.03;;;8.20;;
19595;SDS011;9945;46.010;8.946;2022-12-16T16:42:22;10.53;;;9.40;;
19595;SDS011;9945;46.010;8.946;2022-12-16T16:45:07;9.17;;;8.30;;